createdAt,value
2022-09-21T00:01:23.995Z,18.70
2022-09-21T00:03:59.349Z,18.70
2022-09-21T00:06:28.160Z,18.70
2022-09-21T00:08:56.884Z,18.70
2022-09-21T00:11:29.293Z,18.70
2022-09-21T00:13:59.757Z,18.60
2022-09-21T00:16:27.261Z,18.60
2022-09-21T00:18:54.287Z,18.60
2022-09-21T00:21:21.946Z,18.50
2022-09-21T00:23:49.301Z,18.60
2022-09-21T00:26:21.872Z,18.60
2022-09-21T00:28:57.484Z,18.60
2022-09-21T00:31:25.483Z,18.60
2022-09-21T00:33:53.092Z,18.50
2022-09-21T00:36:23.025Z,18.50
2022-09-21T00:38:52.164Z,18.50
2022-09-21T00:41:20.074Z,18.50
2022-09-21T00:44:07.066Z,18.50
2022-09-21T00:46:35.902Z,18.30
2022-09-21T00:49:03.206Z,18.30
2022-09-21T00:51:30.283Z,18.30
2022-09-21T00:54:05.351Z,18.30
2022-09-21T00:56:32.274Z,18.30
2022-09-21T00:58:59.228Z,18.30
2022-09-21T01:01:26.299Z,18.30
2022-09-21T01:03:57.390Z,18.20
2022-09-21T01:06:26.088Z,18.20
2022-09-21T01:08:56.172Z,18.20
2022-09-21T01:11:26.044Z,18.20
2022-09-21T01:14:20.625Z,18.20
2022-09-21T01:17:02.618Z,18.20
2022-09-21T01:20:13.338Z,18.20
2022-09-21T01:22:58.887Z,18.10
2022-09-21T01:25:56.675Z,18.10
2022-09-21T01:28:34.763Z,18.00
2022-09-21T01:31:06.064Z,18.00
2022-09-21T01:33:39.253Z,18.00
2022-09-21T01:36:20.702Z,18.00
2022-09-21T01:38:50.470Z,18.00
2022-09-21T01:41:23.122Z,18.00
2022-09-21T01:43:55.625Z,18.00
2022-09-21T01:46:25.786Z,17.90
2022-09-21T01:48:56.780Z,17.90
2022-09-21T01:51:28.202Z,17.90
2022-09-21T01:53:59.930Z,17.90
2022-09-21T01:56:40.088Z,17.80
2022-09-21T01:59:14.215Z,17.80
2022-09-21T02:02:07.038Z,17.70
2022-09-21T02:04:38.930Z,17.70
2022-09-21T02:07:07.418Z,17.70
2022-09-21T02:09:38.669Z,17.60
2022-09-21T02:12:05.712Z,17.60
2022-09-21T02:14:34.100Z,17.50
2022-09-21T02:17:09.605Z,17.50
2022-09-21T02:19:54.305Z,17.50
2022-09-21T02:22:32.061Z,17.50
2022-09-21T02:25:07.648Z,17.50
2022-09-21T02:27:39.876Z,17.50
2022-09-21T02:30:15.066Z,17.40
2022-09-21T02:32:59.103Z,17.40
2022-09-21T02:35:37.080Z,17.40
2022-09-21T02:38:09.562Z,17.40
2022-09-21T02:40:43.648Z,17.40
2022-09-21T02:43:17.370Z,17.30
2022-09-21T02:45:54.391Z,17.30
2022-09-21T02:48:29.043Z,17.30
2022-09-21T02:51:02.488Z,17.30
2022-09-21T02:53:33.091Z,17.30
2022-09-21T02:56:06.991Z,17.30
2022-09-21T02:58:50.106Z,17.30
2022-09-21T03:01:18.714Z,17.30
2022-09-21T03:03:45.468Z,17.20
2022-09-21T03:06:12.194Z,17.20
2022-09-21T03:08:39.062Z,17.20
2022-09-21T03:11:06.075Z,17.20
2022-09-21T03:13:32.995Z,17.20
2022-09-21T03:16:07.378Z,17.10
2022-09-21T03:18:35.058Z,17.10
2022-09-21T03:21:03.257Z,17.10
2022-09-21T03:23:30.220Z,17.10
2022-09-21T03:25:56.983Z,17.00
2022-09-21T03:28:24.072Z,17.00
2022-09-21T03:30:53.114Z,17.00
2022-09-21T03:33:20.529Z,17.00
2022-09-21T03:35:50.311Z,17.00
2022-09-21T03:38:17.763Z,17.00
2022-09-21T03:40:49.024Z,17.00
2022-09-21T03:43:16.782Z,17.00
2022-09-21T03:45:43.763Z,17.00
2022-09-21T03:48:12.090Z,16.90
2022-09-21T03:50:38.718Z,16.90
2022-09-21T03:53:05.947Z,16.90
2022-09-21T03:55:33.273Z,16.90
2022-09-21T03:58:00.555Z,16.90
2022-09-21T04:00:27.953Z,16.80
2022-09-21T04:02:55.148Z,16.80
2022-09-21T04:05:22.275Z,16.80
2022-09-21T04:07:51.274Z,16.80
2022-09-21T04:10:21.345Z,16.80
2022-09-21T04:12:48.295Z,16.80
2022-09-21T04:15:19.523Z,16.70
2022-09-21T04:17:47.328Z,16.70
2022-09-21T04:20:14.088Z,16.70
2022-09-21T04:22:43.520Z,16.70
2022-09-21T04:25:12.137Z,16.70
2022-09-21T04:27:39.136Z,16.70
2022-09-21T04:30:06.689Z,16.60
2022-09-21T04:32:33.353Z,16.60
2022-09-21T04:35:00.078Z,16.60
2022-09-21T04:37:26.992Z,16.60
2022-09-21T04:39:53.727Z,16.60
2022-09-21T04:42:20.534Z,16.60
2022-09-21T04:44:47.223Z,16.50
2022-09-21T04:47:14.544Z,16.50
2022-09-21T04:49:41.258Z,16.50
2022-09-21T04:52:08.122Z,16.50
2022-09-21T04:54:34.874Z,16.50
2022-09-21T04:57:01.648Z,16.50
2022-09-21T04:59:28.398Z,16.40
2022-09-21T05:01:55.087Z,16.40
2022-09-21T05:04:21.830Z,16.40
2022-09-21T05:06:48.545Z,16.40
2022-09-21T05:09:34.913Z,16.40
2022-09-21T05:12:03.013Z,16.40
2022-09-21T05:14:29.714Z,16.30
2022-09-21T05:16:56.431Z,16.30
2022-09-21T05:19:23.593Z,16.30
2022-09-21T05:21:50.780Z,16.30
2022-09-21T05:24:17.537Z,16.30
2022-09-21T05:26:44.285Z,16.30
2022-09-21T05:29:11.306Z,16.30
2022-09-21T05:31:40.877Z,16.20
2022-09-21T05:34:38.979Z,16.20
2022-09-21T05:37:21.336Z,16.20
2022-09-21T05:39:48.307Z,16.20
2022-09-21T05:42:15.247Z,16.20
2022-09-21T05:44:42.805Z,16.20
2022-09-21T05:47:26.439Z,16.20
2022-09-21T05:50:11.745Z,16.10
2022-09-21T05:52:56.137Z,16.10
2022-09-21T05:55:59.006Z,16.10
2022-09-21T05:58:57.301Z,16.10
2022-09-21T06:01:42.072Z,16.10
2022-09-21T06:04:14.959Z,16.10
2022-09-21T06:06:41.744Z,16.10
2022-09-21T06:09:08.934Z,16.10
2022-09-21T06:11:36.414Z,16.10
2022-09-21T06:14:03.807Z,16.10
2022-09-21T06:16:43.504Z,16.10
2022-09-21T06:19:13.990Z,16.10
2022-09-21T06:21:40.771Z,16.10
2022-09-21T06:24:08.100Z,16.10
2022-09-21T06:26:35.513Z,16.00
2022-09-21T06:29:02.228Z,16.10
2022-09-21T06:31:29.565Z,16.10
2022-09-21T06:33:56.403Z,16.10
2022-09-21T06:36:23.642Z,16.10
2022-09-21T06:38:50.360Z,16.20
2022-09-21T06:41:20.988Z,16.00
2022-09-21T06:43:48.261Z,15.50
2022-09-21T06:46:15.157Z,15.20
2022-09-21T06:48:42.086Z,15.00
2022-09-21T06:51:10.828Z,14.80
2022-09-21T06:53:37.516Z,14.60
2022-09-21T06:56:06.676Z,14.50
2022-09-21T06:58:34.687Z,14.50
2022-09-21T07:01:12.752Z,14.40
2022-09-21T07:03:40.158Z,14.30
2022-09-21T07:06:08.841Z,14.30
2022-09-21T07:11:27.533Z,14.20
2022-09-21T07:13:55.120Z,14.20
2022-09-21T07:16:21.969Z,14.20
2022-09-21T07:18:48.992Z,14.20
2022-09-21T07:21:16.730Z,14.20
2022-09-21T07:23:44.046Z,14.20
2022-09-21T07:26:12.892Z,14.20
2022-09-21T07:28:40.228Z,14.20
2022-09-21T07:31:13.998Z,14.30
2022-09-21T07:33:46.486Z,14.30
2022-09-21T07:36:13.335Z,14.30
2022-09-21T07:38:44.178Z,14.40
2022-09-21T07:41:13.058Z,14.40
2022-09-21T07:43:40.559Z,14.40
2022-09-21T07:46:15.081Z,14.50
2022-09-21T07:48:42.530Z,14.60
2022-09-21T07:51:11.701Z,14.60
2022-09-21T07:53:40.997Z,14.70
2022-09-21T07:56:10.237Z,14.70
2022-09-21T07:58:57.038Z,14.80
2022-09-21T08:01:25.332Z,14.80
2022-09-21T08:03:55.342Z,14.90
2022-09-21T08:06:23.099Z,14.90
2022-09-21T08:08:55.027Z,14.90
2022-09-21T08:11:23.737Z,14.90
2022-09-21T08:13:59.147Z,14.90
2022-09-21T08:16:27.074Z,15.00
2022-09-21T08:18:53.851Z,15.10
2022-09-21T08:21:21.008Z,15.20
2022-09-21T08:23:49.202Z,15.20
2022-09-21T08:26:19.177Z,15.30
2022-09-21T08:28:51.693Z,15.30
2022-09-21T08:31:20.984Z,15.30
2022-09-21T08:33:49.826Z,15.30
2022-09-21T08:36:17.515Z,15.40
2022-09-21T08:38:46.887Z,15.40
2022-09-21T08:41:41.384Z,15.50
2022-09-21T08:44:20.060Z,15.50
2022-09-21T08:46:50.978Z,15.60
2022-09-21T08:49:23.120Z,15.60
2022-09-21T08:52:02.864Z,15.70
2022-09-21T08:54:41.121Z,15.70
2022-09-21T08:57:15.574Z,15.70
2022-09-21T08:59:46.727Z,15.80
2022-09-21T09:02:13.744Z,15.90
2022-09-21T09:04:52.619Z,15.90
2022-09-21T09:07:49.059Z,15.90
2022-09-21T09:10:23.806Z,16.00
2022-09-21T09:13:08.253Z,16.00
2022-09-21T09:16:09.344Z,16.10
2022-09-21T09:18:44.878Z,16.20
2022-09-21T09:21:11.721Z,16.30
2022-09-21T09:23:44.123Z,16.30
2022-09-21T09:26:30.292Z,16.30
2022-09-21T09:29:29.028Z,16.30
2022-09-21T09:31:58.589Z,16.40
2022-09-21T09:34:32.322Z,16.40
2022-09-21T09:37:13.997Z,16.50
2022-09-21T09:39:43.086Z,16.50
2022-09-21T09:42:34.484Z,16.50
2022-09-21T09:45:11.804Z,16.50
2022-09-21T09:48:10.397Z,16.60
2022-09-21T09:50:42.565Z,16.60
2022-09-21T09:53:22.567Z,16.60
2022-09-21T09:55:52.191Z,16.70
2022-09-21T09:58:24.264Z,16.70
2022-09-21T10:00:55.473Z,16.70
2022-09-21T10:03:24.594Z,16.70
2022-09-21T10:05:51.989Z,16.80
2022-09-21T10:08:36.867Z,16.80
2022-09-21T10:11:04.327Z,16.80
2022-09-21T10:13:42.751Z,16.80
2022-09-21T10:16:20.525Z,16.80
2022-09-21T10:19:03.253Z,16.80
2022-09-21T10:21:37.029Z,16.80
2022-09-21T10:24:15.592Z,16.90
2022-09-21T10:26:54.435Z,16.90
2022-09-21T10:29:25.194Z,16.90
2022-09-21T10:32:05.351Z,16.90
2022-09-21T10:34:34.579Z,17.00
2022-09-21T10:37:22.633Z,17.00
2022-09-21T10:39:49.370Z,17.00
2022-09-21T10:42:18.758Z,17.00
2022-09-21T10:44:47.900Z,17.00
2022-09-21T10:47:35.457Z,17.00
2022-09-21T10:50:05.616Z,17.00
2022-09-21T10:52:42.840Z,17.00
2022-09-21T10:55:19.041Z,17.00
2022-09-21T10:57:46.775Z,17.10
2022-09-21T11:00:40.683Z,17.10
2022-09-21T11:03:28.505Z,17.10
2022-09-21T11:06:02.519Z,17.10
2022-09-21T11:08:45.122Z,17.20
2022-09-21T11:11:30.646Z,17.20
2022-09-21T11:14:37.349Z,17.30
2022-09-21T11:17:08.610Z,17.20
2022-09-21T11:20:03.938Z,17.30
2022-09-21T11:22:57.435Z,17.50
2022-09-21T11:25:31.261Z,17.50
2022-09-21T11:28:22.240Z,17.60
2022-09-21T11:31:14.893Z,17.60
2022-09-21T11:34:02.073Z,17.60
2022-09-21T11:36:55.416Z,17.70
2022-09-21T11:40:03.543Z,17.80
2022-09-21T11:42:51.036Z,17.70
2022-09-21T11:45:50.638Z,17.80
2022-09-21T11:48:30.788Z,17.80
2022-09-21T11:51:03.787Z,17.80
2022-09-21T11:53:50.144Z,17.80
2022-09-21T11:56:55.140Z,17.80
2022-09-21T11:59:36.447Z,17.80
2022-09-21T12:02:31.511Z,17.80
2022-09-21T12:05:13.972Z,17.80
2022-09-21T12:08:09.201Z,17.80
2022-09-21T12:11:03.989Z,17.80
2022-09-21T12:13:54.833Z,17.90
2022-09-21T12:16:46.432Z,17.90
2022-09-21T12:19:39.790Z,18.00
2022-09-21T12:22:17.651Z,18.10
2022-09-21T12:24:49.227Z,18.10
2022-09-21T12:27:44.561Z,18.10
2022-09-21T12:30:15.147Z,18.20
2022-09-21T12:33:06.524Z,18.20
2022-09-21T12:35:43.882Z,18.30
2022-09-21T12:41:21.449Z,18.20
2022-09-21T12:44:00.547Z,18.10
2022-09-21T12:46:38.007Z,18.00
2022-09-21T12:49:31.550Z,18.00
2022-09-21T12:52:03.610Z,17.90
2022-09-21T12:54:50.476Z,17.90
2022-09-21T12:58:10.998Z,17.80
2022-09-21T13:00:42.602Z,17.70
2022-09-21T13:03:19.366Z,17.60
2022-09-21T13:06:34.422Z,17.60
2022-09-21T13:09:06.185Z,17.60
2022-09-21T13:11:35.567Z,17.60
2022-09-21T13:14:04.752Z,17.70
2022-09-21T13:16:35.244Z,17.70
2022-09-21T13:19:19.206Z,17.70
2022-09-21T13:21:46.128Z,17.70
2022-09-21T13:24:31.038Z,17.70
2022-09-21T13:27:05.017Z,17.70
2022-09-21T13:29:34.836Z,17.80
2022-09-21T13:32:22.829Z,17.80
2022-09-21T13:34:51.008Z,17.80
2022-09-21T13:37:21.040Z,17.70
2022-09-21T13:40:03.384Z,17.80
2022-09-21T13:42:33.679Z,17.70
2022-09-21T13:45:15.327Z,17.80
2022-09-21T13:47:45.687Z,17.80
2022-09-21T13:50:21.522Z,17.90
2022-09-21T13:52:52.289Z,17.90
2022-09-21T13:55:22.107Z,17.90
2022-09-21T13:57:54.338Z,17.80
2022-09-21T14:00:50.539Z,17.80
2022-09-21T14:03:55.829Z,17.80
2022-09-21T14:06:42.931Z,17.70
2022-09-21T14:09:30.084Z,17.80
2022-09-21T14:12:03.802Z,17.80
2022-09-21T14:14:43.265Z,17.80
2022-09-21T14:17:42.826Z,17.70
2022-09-21T14:20:32.014Z,17.70
2022-09-21T14:23:16.378Z,17.70
2022-09-21T14:25:54.478Z,17.70
2022-09-21T14:28:41.346Z,17.70
2022-09-21T14:31:20.777Z,17.70
2022-09-21T14:33:53.518Z,17.70
2022-09-21T14:36:25.609Z,17.60
2022-09-21T14:39:01.718Z,17.70
2022-09-21T14:41:37.597Z,17.60
2022-09-21T14:44:05.289Z,17.60
2022-09-21T14:46:59.597Z,17.60
2022-09-21T14:50:14.335Z,17.50
2022-09-21T14:53:09.370Z,17.50
2022-09-21T14:56:00.703Z,17.60
2022-09-21T14:59:28.849Z,17.60
2022-09-21T15:01:59.353Z,17.50
2022-09-21T15:04:46.171Z,17.50
2022-09-21T15:07:34.251Z,17.60
2022-09-21T15:10:30.411Z,17.70
2022-09-21T15:13:19.177Z,17.70
2022-09-21T15:15:57.835Z,17.80
2022-09-21T15:18:25.794Z,17.70
2022-09-21T15:21:03.446Z,17.80
2022-09-21T15:23:34.830Z,17.70
2022-09-21T15:26:04.241Z,17.80
2022-09-21T15:29:07.820Z,17.90
2022-09-21T15:31:38.684Z,17.90
2022-09-21T15:34:06.764Z,18.00
2022-09-21T15:36:44.232Z,18.00
2022-09-21T15:39:29.073Z,18.00
2022-09-21T15:42:20.171Z,18.00
2022-09-21T15:44:49.022Z,18.10
2022-09-21T15:47:22.441Z,18.10
2022-09-21T15:49:50.873Z,18.10
2022-09-21T15:52:43.123Z,18.10
2022-09-21T15:55:21.532Z,18.10
2022-09-21T15:58:21.381Z,18.20
2022-09-21T16:00:55.948Z,18.20
2022-09-21T16:03:25.960Z,18.20
2022-09-21T16:05:55.426Z,18.20
2022-09-21T16:08:35.866Z,18.20
2022-09-21T16:11:15.805Z,18.20
2022-09-21T16:14:02.887Z,18.20
2022-09-21T16:16:29.773Z,18.20
2022-09-21T16:19:00.046Z,18.20
2022-09-21T16:21:35.161Z,18.20
2022-09-21T16:24:19.520Z,18.20
2022-09-21T16:27:00.882Z,18.20
2022-09-21T16:29:42.984Z,18.20
2022-09-21T16:32:35.926Z,18.20
2022-09-21T16:35:21.989Z,18.20
2022-09-21T16:37:51.795Z,18.10
2022-09-21T16:40:19.355Z,18.10
2022-09-21T16:42:46.587Z,18.10
2022-09-21T16:45:23.988Z,18.10
2022-09-21T16:47:53.265Z,18.10
2022-09-21T16:50:20.305Z,18.10
2022-09-21T16:52:52.392Z,18.00
2022-09-21T16:55:20.027Z,18.00
2022-09-21T16:57:48.202Z,18.00
2022-09-21T17:00:20.771Z,18.00
2022-09-21T17:02:48.372Z,18.00
2022-09-21T17:05:18.018Z,18.00
2022-09-21T17:07:51.225Z,18.00
2022-09-21T17:10:19.461Z,17.90
2022-09-21T17:12:46.548Z,17.90
2022-09-21T17:15:13.585Z,17.90
2022-09-21T17:17:42.556Z,17.90
2022-09-21T17:20:20.515Z,17.90
2022-09-21T17:22:47.246Z,17.90
2022-09-21T17:25:14.065Z,17.90
2022-09-21T17:27:42.340Z,17.80
2022-09-21T17:30:13.234Z,17.80
2022-09-21T17:32:42.897Z,17.80
2022-09-21T17:35:32.849Z,17.80
2022-09-21T17:38:00.803Z,17.80
2022-09-21T17:40:29.787Z,17.80
2022-09-21T17:43:16.011Z,17.80
2022-09-21T17:45:50.417Z,17.70
2022-09-21T17:48:22.236Z,17.70
2022-09-21T17:50:49.954Z,17.70
2022-09-21T17:53:37.451Z,17.60
2022-09-21T17:56:25.748Z,17.60
2022-09-21T17:59:05.291Z,17.60
2022-09-21T18:01:36.690Z,17.50
2022-09-21T18:04:05.061Z,17.50
2022-09-21T18:06:34.047Z,17.50
2022-09-21T18:09:01.696Z,17.50
2022-09-21T18:11:46.164Z,17.50
2022-09-21T18:14:27.848Z,17.50
2022-09-21T18:17:20.705Z,17.50
2022-09-21T18:20:29.781Z,17.50
2022-09-21T18:23:32.933Z,17.50
2022-09-21T18:26:00.500Z,17.50
2022-09-21T18:28:47.690Z,17.50
2022-09-21T18:31:46.758Z,17.40
2022-09-21T18:34:46.955Z,17.40
2022-09-21T18:37:32.621Z,17.40
2022-09-21T18:40:11.864Z,17.40
2022-09-21T18:42:53.072Z,17.40
2022-09-21T18:45:29.803Z,17.40
2022-09-21T18:48:15.897Z,17.40
2022-09-21T18:51:12.336Z,17.30
2022-09-21T18:53:46.976Z,17.30
2022-09-21T18:56:14.609Z,17.30
2022-09-21T18:58:43.056Z,17.30
2022-09-21T19:01:14.669Z,17.30
2022-09-21T19:04:02.343Z,17.30
2022-09-21T19:06:42.624Z,17.20
2022-09-21T19:09:37.497Z,17.20
2022-09-21T19:12:28.502Z,17.20
2022-09-21T19:15:42.309Z,17.20
2022-09-21T19:18:45.532Z,17.20
2022-09-21T19:21:48.723Z,17.20
2022-09-21T19:24:30.506Z,17.20
2022-09-21T19:27:26.406Z,17.10
2022-09-21T19:30:13.127Z,17.10
2022-09-21T19:32:51.772Z,17.10
2022-09-21T19:35:22.090Z,17.10
2022-09-21T19:37:50.310Z,17.10
2022-09-21T19:40:17.990Z,17.10
2022-09-21T19:43:12.955Z,17.10
2022-09-21T19:46:32.388Z,17.10
2022-09-21T19:49:21.186Z,17.10
2022-09-21T19:51:50.238Z,17.00
2022-09-21T19:54:43.378Z,17.00
2022-09-21T19:57:35.019Z,17.00
2022-09-21T20:00:02.598Z,17.00
2022-09-21T20:02:32.619Z,17.00
2022-09-21T20:05:13.475Z,17.00
2022-09-21T20:07:44.388Z,16.90
2022-09-21T20:10:25.062Z,16.90
2022-09-21T20:13:24.023Z,16.90
2022-09-21T20:16:03.816Z,16.90
2022-09-21T20:18:30.554Z,16.90
2022-09-21T20:20:57.706Z,16.90
2022-09-21T20:23:24.742Z,16.90
2022-09-21T20:26:00.692Z,16.90
2022-09-21T20:28:27.771Z,16.80
2022-09-21T20:30:54.758Z,16.90
2022-09-21T20:33:26.910Z,16.80
2022-09-21T20:35:55.735Z,16.80
2022-09-21T20:38:23.181Z,16.80
2022-09-21T20:40:50.192Z,16.80
2022-09-21T20:43:17.003Z,16.80
2022-09-21T20:45:47.717Z,16.80
2022-09-21T20:48:14.728Z,16.80
2022-09-21T20:50:46.381Z,16.80
2022-09-21T20:53:13.674Z,16.70
2022-09-21T20:55:41.681Z,16.80
2022-09-21T20:58:12.903Z,16.70
2022-09-21T21:00:40.179Z,16.70
2022-09-21T21:03:06.935Z,16.70
2022-09-21T21:05:33.683Z,16.70
2022-09-21T21:08:00.450Z,16.70
2022-09-21T21:10:27.389Z,16.70
2022-09-21T21:12:54.151Z,16.70
2022-09-21T21:15:20.892Z,16.60
2022-09-21T21:17:48.725Z,16.60
2022-09-21T21:20:16.703Z,16.60
2022-09-21T21:22:44.808Z,16.60
2022-09-21T21:25:11.774Z,16.60
2022-09-21T21:27:39.109Z,16.60
2022-09-21T21:30:07.200Z,16.60
2022-09-21T21:32:34.250Z,16.60
2022-09-21T21:35:01.671Z,16.60
2022-09-21T21:37:29.171Z,16.60
2022-09-21T21:39:56.962Z,16.60
2022-09-21T21:42:29.480Z,16.60
2022-09-21T21:44:56.510Z,16.60
2022-09-21T21:47:40.150Z,16.50
2022-09-21T21:50:10.646Z,16.50
2022-09-21T21:52:37.751Z,16.50
2022-09-21T21:55:05.616Z,16.50
2022-09-21T21:57:33.280Z,16.50
2022-09-21T22:00:00.079Z,16.50
2022-09-21T22:02:27.233Z,16.50
2022-09-21T22:04:57.081Z,16.40
2022-09-21T22:07:23.794Z,16.40
2022-09-21T22:09:50.500Z,16.40
2022-09-21T22:12:17.598Z,16.40
2022-09-21T22:14:46.349Z,16.30
2022-09-21T22:17:13.451Z,16.40
2022-09-21T22:19:40.341Z,16.40
2022-09-21T22:22:07.067Z,16.40
2022-09-21T22:24:33.765Z,16.30
2022-09-21T22:27:00.619Z,16.30
2022-09-21T22:29:27.298Z,16.30
2022-09-21T22:31:55.269Z,16.30
2022-09-21T22:34:22.098Z,16.30
2022-09-21T22:36:50.222Z,16.30
2022-09-21T22:39:16.958Z,16.20
2022-09-21T22:41:44.362Z,16.20
2022-09-21T22:44:11.682Z,16.20
2022-09-21T22:46:38.979Z,16.20
2022-09-21T22:49:06.051Z,16.20
2022-09-21T22:51:33.561Z,16.20
2022-09-21T22:54:01.499Z,16.20
2022-09-21T22:56:30.878Z,16.20
2022-09-21T22:58:59.352Z,16.20
2022-09-21T23:01:44.711Z,16.20
2022-09-21T23:04:13.552Z,16.20
2022-09-21T23:06:43.286Z,16.10
2022-09-21T23:09:18.571Z,16.10
2022-09-21T23:11:48.277Z,16.10
2022-09-21T23:14:16.581Z,16.10
2022-09-21T23:16:43.446Z,16.10
2022-09-21T23:19:15.534Z,16.10
2022-09-21T23:21:45.214Z,16.10
2022-09-21T23:24:12.962Z,16.10
2022-09-21T23:26:39.801Z,16.00
2022-09-21T23:29:12.480Z,16.10
2022-09-21T23:31:44.443Z,16.00
2022-09-21T23:34:12.732Z,16.00
2022-09-21T23:36:40.699Z,16.00
2022-09-21T23:39:10.543Z,16.00
2022-09-21T23:41:37.543Z,16.00
2022-09-21T23:44:04.827Z,15.90
2022-09-21T23:46:34.722Z,16.00
2022-09-21T23:49:02.215Z,16.00
2022-09-21T23:51:32.320Z,15.90
2022-09-21T23:53:59.728Z,15.90
2022-09-21T23:56:27.236Z,15.90
2022-09-21T23:58:54.612Z,15.90
